createdAt,value
2022-08-11T00:01:18.345Z,7.85
2022-08-11T00:03:51.875Z,7.05
2022-08-11T00:06:26.987Z,6.15
2022-08-11T00:08:57.806Z,8.38
2022-08-11T00:11:35.228Z,7.35
2022-08-11T00:14:19.784Z,12.32
2022-08-11T00:16:59.736Z,7.85
2022-08-11T00:20:11.914Z,7.65
2022-08-11T00:22:24.728Z,10.93
2022-08-11T00:25:00.013Z,8.05
2022-08-11T00:27:36.399Z,11.15
2022-08-11T00:30:07.175Z,8.45
2022-08-11T00:32:40.259Z,9.68
2022-08-11T00:35:55.335Z,9.52
2022-08-11T00:38:04.940Z,7.55
2022-08-11T00:40:40.650Z,12.70
2022-08-11T00:43:21.761Z,7.63
2022-08-11T00:46:12.564Z,11.43
2022-08-11T00:48:58.373Z,10.32
2022-08-11T00:52:04.236Z,8.43
2022-08-11T00:55:07.453Z,10.23
2022-08-11T00:58:11.903Z,10.25
2022-08-11T01:01:06.692Z,8.90
2022-08-11T01:04:01.003Z,10.30
2022-08-11T01:06:53.768Z,10.38
2022-08-11T01:09:49.012Z,10.85
2022-08-11T01:12:44.305Z,9.85
2022-08-11T01:16:00.466Z,9.93
2022-08-11T01:19:09.199Z,10.27
2022-08-11T01:22:11.754Z,8.38
2022-08-11T01:25:15.215Z,11.43
2022-08-11T01:28:33.403Z,10.65
2022-08-11T01:31:27.609Z,9.30
2022-08-11T01:34:30.819Z,10.98
2022-08-11T01:37:42.161Z,9.88
2022-08-11T01:40:36.147Z,8.90
2022-08-11T01:43:58.371Z,11.75
2022-08-11T01:46:32.393Z,10.25
2022-08-11T01:50:05.200Z,9.77
2022-08-11T01:52:10.081Z,11.93
2022-08-11T01:54:49.068Z,8.73
2022-08-11T01:57:35.276Z,10.57
2022-08-11T02:00:12.730Z,14.60
2022-08-11T02:02:55.036Z,10.45
2022-08-11T02:05:43.907Z,9.18
2022-08-11T02:08:33.271Z,11.95
2022-08-11T02:11:35.703Z,8.10
2022-08-11T02:14:25.858Z,12.65
2022-08-11T02:17:15.425Z,10.13
2022-08-11T02:20:24.713Z,8.25
2022-08-11T02:24:03.815Z,9.68
2022-08-11T02:26:19.630Z,11.85
2022-08-11T02:29:01.820Z,9.63
2022-08-11T02:32:24.343Z,7.90
2022-08-11T02:35:19.083Z,9.88
2022-08-11T02:38:00.092Z,7.47
2022-08-11T02:40:37.644Z,7.22
2022-08-11T02:43:20.391Z,9.07
2022-08-11T02:45:57.909Z,8.90
2022-08-11T02:49:00.517Z,7.65
2022-08-11T02:51:41.680Z,6.40
2022-08-11T02:54:22.076Z,8.40
2022-08-11T02:56:58.728Z,9.98
2022-08-11T02:59:51.482Z,10.02
2022-08-11T03:02:47.311Z,11.23
2022-08-11T03:05:26.991Z,10.15
2022-08-11T03:08:25.192Z,7.43
2022-08-11T03:11:30.728Z,8.05
2022-08-11T03:14:35.515Z,12.43
2022-08-11T03:17:17.777Z,10.23
2022-08-11T03:20:01.265Z,7.50
2022-08-11T03:22:38.105Z,9.60
2022-08-11T03:25:16.604Z,11.98
2022-08-11T03:27:53.694Z,11.88
2022-08-11T03:30:31.493Z,8.93
2022-08-11T03:33:36.896Z,7.68
2022-08-11T03:36:17.203Z,10.85
2022-08-11T03:39:00.042Z,9.70
2022-08-11T03:42:03.368Z,11.25
2022-08-11T03:44:49.507Z,10.20
2022-08-11T03:47:52.578Z,7.95
2022-08-11T03:50:44.249Z,10.07
2022-08-11T03:53:20.210Z,9.50
2022-08-11T03:56:24.181Z,10.20
2022-08-11T03:59:17.676Z,12.40
2022-08-11T04:02:22.152Z,12.13
2022-08-11T04:08:13.228Z,8.52
2022-08-11T04:11:16.991Z,9.05
2022-08-11T04:14:48.944Z,8.65
2022-08-11T04:18:00.690Z,9.23
2022-08-11T04:20:53.829Z,11.80
2022-08-11T04:24:36.438Z,31.77
2022-08-11T04:27:21.285Z,22.00
2022-08-11T04:30:05.745Z,13.48
2022-08-11T04:33:34.432Z,11.48
2022-08-11T04:36:49.587Z,9.25
2022-08-11T04:39:35.260Z,8.85
2022-08-11T04:42:48.703Z,11.98
2022-08-11T04:45:53.123Z,9.27
2022-08-11T04:52:37.540Z,14.90
2022-08-11T04:56:00.666Z,7.63
2022-08-11T04:59:07.500Z,13.10
2022-08-11T05:02:17.013Z,12.65
2022-08-11T05:05:16.362Z,5.90
2022-08-11T05:08:23.863Z,13.27
2022-08-11T05:11:08.679Z,10.60
2022-08-11T05:14:04.829Z,12.85
2022-08-11T05:17:01.109Z,14.88
2022-08-11T05:19:48.972Z,14.38
2022-08-11T05:22:38.837Z,10.40
2022-08-11T05:26:46.878Z,14.02
2022-08-11T05:28:48.933Z,8.98
2022-08-11T05:31:52.167Z,14.48
2022-08-11T05:34:44.036Z,8.68
2022-08-11T05:37:28.282Z,8.00
2022-08-11T05:40:20.149Z,7.97
2022-08-11T05:43:09.472Z,8.32
2022-08-11T05:46:04.055Z,6.45
2022-08-11T05:48:55.527Z,7.03
2022-08-11T05:51:55.318Z,11.23
2022-08-11T05:54:46.012Z,6.57
2022-08-11T05:57:48.807Z,8.05
2022-08-11T06:00:13.314Z,7.45
2022-08-11T06:02:45.554Z,5.60
2022-08-11T06:05:19.480Z,7.60
2022-08-11T06:07:50.989Z,6.05
2022-08-11T06:10:29.702Z,6.03
2022-08-11T06:13:02.003Z,4.55
2022-08-11T06:15:36.144Z,4.90
2022-08-11T06:18:06.471Z,4.32
2022-08-11T06:20:48.291Z,4.93
2022-08-11T06:23:23.292Z,9.88
2022-08-11T06:25:56.333Z,12.23
2022-08-11T06:28:32.673Z,6.57
2022-08-11T06:31:04.771Z,7.35
2022-08-11T06:33:44.032Z,6.88
2022-08-11T06:36:18.329Z,5.65
2022-08-11T06:39:02.409Z,11.07
2022-08-11T06:44:17.255Z,4.13
2022-08-11T06:46:50.988Z,6.75
2022-08-11T06:52:35.223Z,6.13
2022-08-11T06:55:57.917Z,3.45
2022-08-11T06:58:20.793Z,6.85
2022-08-11T07:00:58.400Z,9.07
2022-08-11T07:03:38.253Z,4.03
2022-08-11T07:06:23.316Z,7.75
2022-08-11T07:09:53.214Z,8.48
2022-08-11T07:12:58.697Z,7.38
2022-08-11T07:16:11.203Z,7.35
2022-08-11T07:18:55.131Z,6.88
2022-08-11T07:22:02.821Z,5.57
2022-08-11T07:24:58.776Z,3.65
2022-08-11T07:28:02.431Z,3.92
2022-08-11T07:30:36.024Z,4.65
2022-08-11T07:33:08.542Z,5.25
2022-08-11T07:35:43.910Z,5.22
2022-08-11T07:38:22.853Z,4.63
2022-08-11T07:41:00.246Z,5.47
2022-08-11T07:43:30.373Z,6.22
2022-08-11T07:46:18.302Z,7.05
2022-08-11T07:49:05.465Z,10.60
2022-08-11T07:51:56.947Z,4.90
2022-08-11T07:54:28.080Z,3.75
2022-08-11T07:57:58.494Z,6.07
2022-08-11T08:00:32.037Z,3.90
2022-08-11T08:03:22.819Z,13.07
2022-08-11T08:06:28.671Z,4.22
2022-08-11T08:09:19.899Z,3.70
2022-08-11T08:12:08.217Z,4.50
2022-08-11T08:14:57.652Z,4.13
2022-08-11T08:18:20.826Z,6.10
2022-08-11T08:20:39.960Z,8.73
2022-08-11T08:23:11.027Z,3.90
2022-08-11T08:25:42.427Z,3.80
2022-08-11T08:28:15.999Z,10.30
2022-08-11T08:33:23.421Z,5.80
2022-08-11T08:36:11.907Z,3.58
2022-08-11T08:38:43.221Z,3.70
2022-08-11T08:41:16.415Z,4.03
2022-08-11T08:43:51.945Z,4.22
2022-08-11T08:46:37.968Z,5.38
2022-08-11T08:49:11.110Z,4.32
2022-08-11T08:51:58.759Z,4.47
2022-08-11T08:54:37.133Z,4.57
2022-08-11T08:57:09.208Z,3.88
2022-08-11T08:59:49.091Z,4.45
2022-08-11T09:02:33.912Z,4.80
2022-08-11T09:05:06.272Z,3.63
2022-08-11T09:07:39.333Z,6.32
2022-08-11T09:12:43.474Z,4.85
2022-08-11T09:15:19.677Z,4.20
2022-08-11T09:18:03.778Z,4.55
2022-08-11T09:20:36.402Z,6.65
2022-08-11T09:26:34.323Z,3.88
2022-08-11T09:29:05.800Z,4.82
2022-08-11T09:31:39.594Z,6.60
2022-08-11T09:34:15.153Z,6.10
2022-08-11T09:37:03.846Z,5.72
2022-08-11T09:39:55.706Z,11.52
2022-08-11T09:42:47.481Z,4.05
2022-08-11T09:45:17.432Z,3.30
2022-08-11T09:47:48.272Z,5.93
2022-08-11T09:50:20.169Z,3.58
2022-08-11T09:53:35.212Z,4.13
2022-08-11T09:55:43.124Z,6.13
2022-08-11T09:58:35.166Z,4.35
2022-08-11T10:01:08.024Z,6.07
2022-08-11T10:03:42.678Z,8.32
2022-08-11T10:06:34.412Z,4.38
2022-08-11T10:09:07.384Z,4.22
2022-08-11T10:11:38.731Z,3.10
2022-08-11T10:14:34.620Z,8.30
2022-08-11T10:17:09.162Z,5.55
2022-08-11T10:19:40.274Z,5.88
2022-08-11T10:22:29.241Z,3.95
2022-08-11T10:25:21.344Z,3.95
2022-08-11T10:28:28.530Z,7.47
2022-08-11T10:31:06.716Z,5.00
2022-08-11T10:33:59.790Z,5.65
2022-08-11T10:36:31.439Z,3.97
2022-08-11T10:39:06.286Z,4.60
2022-08-11T10:42:06.902Z,4.38
2022-08-11T10:44:42.568Z,5.57
2022-08-11T10:47:32.084Z,4.95
2022-08-11T10:50:20.954Z,5.53
2022-08-11T10:53:09.674Z,4.40
2022-08-11T10:56:02.153Z,4.00
2022-08-11T10:58:49.289Z,5.35
2022-08-11T11:01:24.863Z,3.72
2022-08-11T11:03:58.996Z,4.05
2022-08-11T11:06:34.671Z,7.70
2022-08-11T11:09:09.804Z,5.25
2022-08-11T11:12:06.397Z,3.03
2022-08-11T11:14:59.163Z,2.90
2022-08-11T11:17:49.153Z,5.22
2022-08-11T11:20:37.220Z,6.70
2022-08-11T11:23:13.645Z,3.45
2022-08-11T11:26:10.196Z,4.25
2022-08-11T11:29:04.281Z,5.70
2022-08-11T11:31:47.041Z,4.70
2022-08-11T11:34:33.324Z,3.25
2022-08-11T11:37:04.979Z,3.55
2022-08-11T11:39:37.318Z,2.60
2022-08-11T11:42:10.500Z,3.25
2022-08-11T11:44:45.804Z,3.47
2022-08-11T11:47:21.708Z,3.25
2022-08-11T11:49:53.181Z,4.05
2022-08-11T11:52:24.781Z,5.78
2022-08-11T11:54:58.472Z,3.92
2022-08-11T11:57:58.752Z,4.65
2022-08-11T12:00:48.742Z,3.15
2022-08-11T12:03:21.024Z,2.97
2022-08-11T12:05:52.839Z,4.78
2022-08-11T12:08:27.766Z,3.83
2022-08-11T12:11:15.697Z,4.10
2022-08-11T12:13:50.268Z,3.10
2022-08-11T12:16:34.295Z,3.42
2022-08-11T12:19:10.442Z,3.00
2022-08-11T12:22:03.089Z,7.00
2022-08-11T12:27:59.087Z,2.92
2022-08-11T12:30:29.327Z,3.20
2022-08-11T12:33:00.850Z,3.33
2022-08-11T12:35:31.624Z,4.45
2022-08-11T12:38:08.002Z,2.55
2022-08-11T12:44:06.968Z,2.90
2022-08-11T12:46:38.836Z,4.07
2022-08-11T12:49:31.080Z,3.30
2022-08-11T12:52:15.023Z,3.95
2022-08-11T12:54:52.803Z,3.67
2022-08-11T12:57:47.609Z,2.75
2022-08-11T13:00:36.886Z,2.75
2022-08-11T13:03:27.210Z,2.90
2022-08-11T13:06:00.915Z,3.13
2022-08-11T13:08:35.551Z,3.15
2022-08-11T13:11:23.866Z,2.90
2022-08-11T13:13:57.923Z,3.20
2022-08-11T13:16:31.836Z,2.58
2022-08-11T13:19:02.997Z,2.92
2022-08-11T13:21:34.536Z,2.60
2022-08-11T13:24:05.294Z,2.80
2022-08-11T13:26:48.737Z,4.05
2022-08-11T13:29:22.834Z,5.82
2022-08-11T13:31:55.032Z,3.10
2022-08-11T13:34:27.375Z,4.22
2022-08-11T13:37:02.321Z,3.80
2022-08-11T13:39:34.833Z,3.85
2022-08-11T13:42:06.948Z,4.50
2022-08-11T13:44:39.563Z,3.53
2022-08-11T13:47:13.199Z,3.33
2022-08-11T13:49:45.043Z,3.50
2022-08-11T13:52:17.722Z,2.80
2022-08-11T13:54:49.345Z,3.13
2022-08-11T13:58:06.375Z,3.10
2022-08-11T14:00:13.147Z,2.75
2022-08-11T14:02:58.863Z,5.10
2022-08-11T14:05:32.743Z,3.45
2022-08-11T14:08:09.795Z,4.13
2022-08-11T14:12:21.589Z,3.92
2022-08-11T14:14:14.842Z,9.13
2022-08-11T14:16:46.769Z,12.15
2022-08-11T14:19:18.555Z,4.40
2022-08-11T14:22:08.708Z,7.47
2022-08-11T14:24:42.649Z,5.22
2022-08-11T14:28:32.556Z,4.78
2022-08-11T14:30:26.635Z,3.45
2022-08-11T14:32:59.827Z,5.40
2022-08-11T14:35:30.243Z,3.80
2022-08-11T14:38:01.635Z,4.13
2022-08-11T14:40:54.474Z,9.32
2022-08-11T14:44:10.441Z,4.75
2022-08-11T14:47:02.992Z,4.18
2022-08-11T14:49:34.914Z,6.00
2022-08-11T14:52:08.548Z,8.13
2022-08-11T14:57:54.305Z,6.13
2022-08-11T15:00:19.233Z,5.63
2022-08-11T15:03:10.457Z,6.45
2022-08-11T15:05:56.134Z,17.35
2022-08-11T15:08:47.656Z,5.55
2022-08-11T15:11:37.326Z,5.07
2022-08-11T15:14:11.078Z,3.70
2022-08-11T15:17:01.039Z,6.13
2022-08-11T15:19:40.583Z,4.00
2022-08-11T15:22:30.242Z,3.90
2022-08-11T15:25:01.052Z,3.28
2022-08-11T15:27:49.850Z,4.47
2022-08-11T15:30:39.798Z,8.30
2022-08-11T15:33:30.181Z,7.68
2022-08-11T15:36:21.750Z,5.65
2022-08-11T15:38:56.489Z,6.35
2022-08-11T15:42:07.207Z,5.80
2022-08-11T15:45:04.088Z,5.15
2022-08-11T15:47:43.735Z,3.05
2022-08-11T15:50:19.110Z,4.40
2022-08-11T15:52:54.565Z,4.28
2022-08-11T15:55:26.490Z,6.75
2022-08-11T15:58:15.498Z,5.78
2022-08-11T16:01:09.106Z,5.60
2022-08-11T16:04:09.072Z,3.30
2022-08-11T16:06:47.735Z,4.28
2022-08-11T16:09:23.952Z,3.75
2022-08-11T16:11:57.712Z,4.28
2022-08-11T16:14:46.244Z,5.53
2022-08-11T16:17:19.762Z,2.83
2022-08-11T16:22:34.428Z,5.10
2022-08-11T16:27:02.910Z,4.22
2022-08-11T16:27:59.599Z,4.75
2022-08-11T16:30:32.545Z,3.47
2022-08-11T16:33:49.110Z,4.88
2022-08-11T16:36:25.287Z,7.72
2022-08-11T16:38:56.252Z,4.13
2022-08-11T16:41:47.789Z,3.33
2022-08-11T16:44:38.309Z,2.88
2022-08-11T16:47:11.757Z,3.47
2022-08-11T16:49:52.707Z,5.20
2022-08-11T16:52:25.728Z,5.93
2022-08-11T16:54:56.106Z,4.10
2022-08-11T16:57:45.478Z,3.40
2022-08-11T17:00:18.686Z,5.07
2022-08-11T17:03:09.562Z,4.55
2022-08-11T17:06:00.290Z,3.13
2022-08-11T17:08:57.397Z,3.50
2022-08-11T17:11:47.803Z,3.58
2022-08-11T17:14:35.563Z,4.13
2022-08-11T17:17:13.309Z,3.85
2022-08-11T17:20:40.444Z,7.28
2022-08-11T17:23:00.577Z,4.80
2022-08-11T17:26:03.610Z,7.38
2022-08-11T17:28:26.090Z,3.90
2022-08-11T17:31:29.156Z,3.88
2022-08-11T17:34:17.519Z,6.25
2022-08-11T17:36:51.484Z,3.95
2022-08-11T17:39:24.639Z,6.28
2022-08-11T17:42:14.169Z,5.78
2022-08-11T17:45:03.591Z,7.40
2022-08-11T17:47:52.953Z,5.97
2022-08-11T17:50:24.494Z,5.20
2022-08-11T17:53:12.653Z,8.95
2022-08-11T17:56:01.360Z,11.48
2022-08-11T17:58:51.058Z,7.00
2022-08-11T18:01:22.797Z,5.30
2022-08-11T18:03:58.087Z,6.25
2022-08-11T18:06:34.709Z,5.13
2022-08-11T18:09:26.846Z,6.72
2022-08-11T18:12:15.377Z,7.82
2022-08-11T18:15:08.254Z,7.93
2022-08-11T18:17:56.460Z,6.25
2022-08-11T18:20:44.568Z,6.05
2022-08-11T18:23:45.997Z,10.57
2022-08-11T18:26:39.382Z,4.72
2022-08-11T18:29:28.209Z,5.63
2022-08-11T18:32:20.751Z,7.53
2022-08-11T18:35:13.078Z,6.38
2022-08-11T18:38:05.958Z,4.80
2022-08-11T18:40:59.163Z,4.50
2022-08-11T18:43:48.183Z,4.83
2022-08-11T18:46:37.390Z,4.85
2022-08-11T18:50:01.006Z,5.05
2022-08-11T18:52:41.436Z,6.80
2022-08-11T18:55:32.309Z,8.70
2022-08-11T18:58:23.630Z,9.32
2022-08-11T19:01:15.423Z,8.77
2022-08-11T19:04:10.971Z,6.05
2022-08-11T19:07:02.721Z,10.38
2022-08-11T19:09:52.178Z,7.45
2022-08-11T19:12:43.350Z,5.60
2022-08-11T19:15:31.891Z,5.85
2022-08-11T19:18:21.408Z,4.13
2022-08-11T19:21:11.413Z,9.13
2022-08-11T19:24:03.186Z,4.55
2022-08-11T19:26:52.497Z,9.02
2022-08-11T19:30:08.069Z,4.25
2022-08-11T19:32:51.545Z,3.20
2022-08-11T19:35:39.410Z,8.55
2022-08-11T19:38:27.610Z,7.25
2022-08-11T19:41:17.919Z,7.53
2022-08-11T19:44:29.013Z,5.18
2022-08-11T19:47:18.762Z,3.92
2022-08-11T19:50:08.337Z,3.35
2022-08-11T19:52:57.988Z,3.53
2022-08-11T19:55:46.654Z,3.35
2022-08-11T19:58:36.395Z,4.97
2022-08-11T20:01:24.692Z,5.35
2022-08-11T20:04:12.216Z,3.20
2022-08-11T20:07:00.417Z,3.00
2022-08-11T20:10:00.955Z,6.75
2022-08-11T20:12:56.273Z,5.10
2022-08-11T20:15:47.004Z,6.53
2022-08-11T20:18:37.382Z,3.50
2022-08-11T20:21:31.700Z,5.30
2022-08-11T20:24:21.774Z,6.43
2022-08-11T20:27:18.923Z,3.90
2022-08-11T20:30:12.444Z,5.60
2022-08-11T20:33:02.731Z,7.68
2022-08-11T20:35:51.924Z,3.30
2022-08-11T20:38:41.715Z,3.20
2022-08-11T20:41:31.127Z,4.63
2022-08-11T20:44:22.849Z,5.32
2022-08-11T20:47:13.396Z,4.07
2022-08-11T20:50:04.565Z,3.55
2022-08-11T20:52:52.153Z,6.32
2022-08-11T20:55:46.199Z,3.28
2022-08-11T20:59:13.810Z,5.68
2022-08-11T21:01:54.109Z,5.03
2022-08-11T21:04:54.121Z,4.85
2022-08-11T21:07:55.191Z,6.82
2022-08-11T21:10:46.815Z,4.57
2022-08-11T21:13:36.900Z,5.43
2022-08-11T21:16:27.722Z,6.85
2022-08-11T21:20:00.330Z,7.10
2022-08-11T21:22:36.392Z,3.83
2022-08-11T21:25:29.975Z,7.22
2022-08-11T21:28:21.048Z,5.17
2022-08-11T21:31:08.909Z,4.47
2022-08-11T21:33:57.544Z,5.90
2022-08-11T21:36:46.724Z,3.30
2022-08-11T21:39:38.198Z,6.70
2022-08-11T21:42:29.200Z,5.82
2022-08-11T21:45:18.313Z,4.00
2022-08-11T21:48:07.015Z,8.40
2022-08-11T21:50:54.270Z,3.38
2022-08-11T21:53:42.639Z,3.35
2022-08-11T21:56:32.108Z,3.78
2022-08-11T21:59:22.326Z,6.63
2022-08-11T22:02:12.748Z,5.78
2022-08-11T22:05:01.485Z,4.55
2022-08-11T22:07:49.962Z,3.83
2022-08-11T22:10:42.213Z,4.55
2022-08-11T22:13:31.509Z,3.40
2022-08-11T22:16:21.011Z,4.38
2022-08-11T22:19:09.847Z,3.58
2022-08-11T22:22:04.253Z,4.75
2022-08-11T22:24:56.032Z,3.42
2022-08-11T22:27:44.839Z,4.15
2022-08-11T22:30:32.678Z,4.95
2022-08-11T22:33:26.985Z,5.03
2022-08-11T22:36:17.298Z,6.88
2022-08-11T22:39:05.989Z,6.22
2022-08-11T22:41:54.009Z,4.25
2022-08-11T22:44:41.396Z,5.60
2022-08-11T22:47:40.358Z,5.72
2022-08-11T22:50:31.096Z,5.88
2022-08-11T22:53:20.299Z,5.15
2022-08-11T22:56:32.071Z,6.78
2022-08-11T22:59:20.769Z,6.43
2022-08-11T23:02:09.148Z,5.70
2022-08-11T23:04:57.483Z,7.78
2022-08-11T23:07:50.903Z,4.20
2022-08-11T23:10:41.599Z,5.60
2022-08-11T23:13:29.809Z,5.43
2022-08-11T23:16:19.635Z,7.90
2022-08-11T23:19:07.939Z,6.57
2022-08-11T23:21:56.263Z,6.28
2022-08-11T23:24:45.007Z,5.55
2022-08-11T23:27:33.287Z,6.95
2022-08-11T23:30:20.632Z,5.32
2022-08-11T23:33:15.716Z,4.78
2022-08-11T23:36:08.347Z,4.70
2022-08-11T23:38:56.167Z,5.18
2022-08-11T23:41:44.989Z,6.88
2022-08-11T23:44:32.224Z,5.35
2022-08-11T23:47:21.507Z,5.10
2022-08-11T23:50:09.777Z,6.05
2022-08-11T23:52:56.976Z,5.22
2022-08-11T23:55:44.783Z,7.07
2022-08-11T23:58:34.201Z,7.22
